Time;durP1;ratioP1;P1;durP2;ratioP2;P2;SDS_P1;SDS_P2;PMS_P1;PMS_P2;Temp;Humidity;BMP_temperature;BMP_pressure;BME280_temperature;BME280_humidity;BME280_pressure;Samples;Min_cycle;Max_cycle;Signal;HPM_P1;HPM_P2
2022/09/10 00:00:56;;;;;;;;;;;;;;;19.93;55.44;101129.47;2035126;29;19954;-76
2022/09/10 00:02:18;;;;;;;;;;;;;;;19.90;55.11;101112.50;2035460;29;20021;-75
2022/09/10 00:03:39;;;;;;;;;;;;;;;19.89;55.30;101113.41;2051299;28;19922;-76
2022/09/10 00:05:01;;;;;;;;;;;;;;;19.88;55.35;101119.72;2048286;29;19922;-76
2022/09/10 00:06:25;;;;;;;;;;;;;;;19.90;55.26;101117.88;2053457;28;19922;-75
2022/09/10 00:07:47;;;;;;;;;;;;;;;19.93;55.04;101121.41;2047935;29;20017;-75
2022/09/10 00:09:10;;;;;;;;;;;;;;;19.88;55.24;101124.19;2045130;29;19949;-75
2022/09/10 00:10:31;;;;;;;;;;;;;;;19.87;55.41;101117.94;2035464;29;20327;-76
2022/09/10 00:11:53;;;;;;;;;;;;;;;19.86;55.38;101120.63;2046151;29;19930;-75
2022/09/10 00:13:15;;;;;;;;;;;;;;;19.83;55.48;101126.91;2050830;28;19926;-76
2022/09/10 00:14:37;;;;;;;;;;;;;;;19.81;55.61;101130.56;2045683;29;20310;-75
2022/09/10 00:16:01;;;;;;;;;;;;;;;19.82;55.32;101125.13;2052768;28;19922;-76
2022/09/10 00:17:23;;;;;;;;;;;;;;;19.82;55.27;101126.97;2040754;29;19923;-75
2022/09/10 00:18:45;;;;;;;;;;;;;;;19.81;55.24;101133.22;2042422;29;20025;-76
2022/09/10 00:20:08;;;;;;;;;;;;;;;19.78;55.59;101120.75;2044094;28;19922;-75
2022/09/10 00:21:29;;;;;;;;;;;;;;;19.78;55.52;101126.13;2046174;29;19957;-76
2022/09/10 00:22:52;;;;;;;;;;;;;;;19.78;55.15;101122.56;2053513;28;20263;-76
2022/09/10 00:24:15;;;;;;;;;;;;;;;19.80;55.38;101126.09;2047529;29;19974;-75
2022/09/10 00:25:37;;;;;;;;;;;;;;;19.78;55.23;101118.06;2037250;29;19934;-76
2022/09/10 00:27:00;;;;;;;;;;;;;;;19.77;55.34;101121.66;2046086;29;20360;-75
2022/09/10 00:28:21;;;;;;;;;;;;;;;19.74;55.11;101115.47;2047319;28;19934;-75
2022/09/10 00:29:43;;;;;;;;;;;;;;;19.71;55.15;101119.09;2048840;28;19930;-76
2022/09/10 00:31:05;;;;;;;;;;;;;;;19.73;55.16;101122.63;2042636;29;19926;-75
2022/09/10 00:32:28;;;;;;;;;;;;;;;19.72;55.15;101115.50;2038109;29;19945;-75
2022/09/10 00:33:51;;;;;;;;;;;;;;;19.75;55.23;101115.47;2034372;29;19922;-76
2022/09/10 00:35:12;;;;;;;;;;;;;;;19.77;55.29;101115.41;2042860;29;19994;-76
2022/09/10 00:36:35;;;;;;;;;;;;;;;19.78;55.09;101111.84;2048511;29;19929;-76
2022/09/10 00:37:56;;;;;;;;;;;;;;;19.77;55.40;101112.75;2043519;29;19922;-76
2022/09/10 00:39:19;;;;;;;;;;;;;;;19.77;55.29;101116.31;2052834;28;19922;-75
2022/09/10 00:40:40;;;;;;;;;;;;;;;19.77;54.96;101124.34;2039883;29;19994;-76
2022/09/10 00:42:02;;;;;;;;;;;;;;;19.76;55.42;101113.63;2037158;29;19973;-76
2022/09/10 00:43:23;;;;;;;;;;;;;;;19.72;55.42;101115.50;2038838;29;20449;-76
2022/09/10 00:45:02;;;;;;;;;;;;;;;19.73;55.15;101111.91;2051313;28;19933;-76
2022/09/10 00:46:43;;;;;;;;;;;;;;;19.74;55.53;101120.84;2055499;28;19958;-75
2022/09/10 00:48:06;;;;;;;;;;;;;;;19.74;55.38;101115.47;2038338;29;19998;-76
2022/09/10 00:49:31;;;;;;;;;;;;;;;19.75;55.30;101112.78;2045474;29;20351;-76
2022/09/10 00:50:53;;;;;;;;;;;;;;;19.77;55.24;101102.91;2046279;29;19940;-75
2022/09/10 00:52:16;;;;;;;;;;;;;;;19.78;55.21;101101.13;2045013;29;19965;-75
2022/09/10 00:53:37;;;;;;;;;;;;;;;19.75;55.54;101101.19;2044991;29;20363;-76
2022/09/10 00:55:00;;;;;;;;;;;;;;;19.74;55.21;101100.28;2044658;29;20021;-76
2022/09/10 00:56:21;;;;;;;;;;;;;;;19.71;55.12;101105.69;2037765;29;19969;-76
2022/09/10 00:57:45;;;;;;;;;;;;;;;19.70;55.41;101103.91;2038845;29;19923;-76
2022/09/10 00:59:07;;;;;;;;;;;;;;;19.70;55.16;101101.22;2037957;29;19926;-76
2022/09/10 01:00:30;;;;;;;;;;;;;;;19.72;55.24;101103.91;2044884;29;19981;-76
2022/09/10 01:01:55;;;;;;;;;;;;;;;19.72;55.40;101102.09;2049390;28;19960;-75
2022/09/10 01:03:18;;;;;;;;;;;;;;;19.73;55.52;101098.53;2047486;28;20062;-75
2022/09/10 01:04:40;;;;;;;;;;;;;;;19.71;55.28;101097.66;2039703;29;19927;-76
2022/09/10 01:06:03;;;;;;;;;;;;;;;19.71;55.48;101094.97;2044796;29;20543;-76
2022/09/10 01:07:28;;;;;;;;;;;;;;;19.71;55.69;101092.28;2037863;29;19930;-75
2022/09/10 01:08:49;;;;;;;;;;;;;;;19.70;55.39;101095.88;2029626;29;19938;-75
2022/09/10 01:10:12;;;;;;;;;;;;;;;19.71;55.63;101094.09;2042246;28;19922;-75
2022/09/10 01:11:48;;;;;;;;;;;;;;;19.74;55.60;101096.72;2043887;29;19930;-75
2022/09/10 01:13:20;;;;;;;;;;;;;;;19.71;55.59;101094.09;2039768;29;19923;-75
2022/09/10 01:14:53;;;;;;;;;;;;;;;19.65;55.91;101084.34;2038760;29;19922;-75
2022/09/10 01:16:21;;;;;;;;;;;;;;;19.62;55.86;101089.78;2045517;28;20756;-76
2022/09/10 01:17:50;;;;;;;;;;;;;;;19.61;55.98;101093.38;2039588;29;19922;-76
2022/09/10 01:19:25;;;;;;;;;;;;;;;19.64;56.24;101090.63;2051232;28;20474;-76
2022/09/10 01:21:11;;;;;;;;;;;;;;;19.65;56.19;101083.47;2039612;29;20035;-75
2022/09/10 01:22:41;;;;;;;;;;;;;;;19.67;56.20;101081.66;2044528;28;20327;-76
2022/09/10 01:24:31;;;;;;;;;;;;;;;19.70;56.39;101079.81;2040089;29;19922;-75
2022/09/10 01:26:01;;;;;;;;;;;;;;;19.69;56.32;101090.56;2058286;28;19957;-75
2022/09/10 01:27:27;;;;;;;;;;;;;;;19.63;56.77;101080.81;2033930;29;20434;-75
2022/09/10 01:28:52;;;;;;;;;;;;;;;19.64;57.02;101081.69;2047315;28;19958;-75
2022/09/10 01:30:18;;;;;;;;;;;;;;;19.67;56.33;101081.66;2053182;28;20008;-75
2022/09/10 01:31:46;;;;;;;;;;;;;;;19.68;56.27;101084.31;2039977;29;19929;-75
2022/09/10 01:33:11;;;;;;;;;;;;;;;19.67;56.60;101079.88;2038761;28;19973;-75
2022/09/10 01:34:40;;;;;;;;;;;;;;;19.65;56.32;101078.13;2048182;28;20257;-75
2022/09/10 01:36:08;;;;;;;;;;;;;;;19.63;56.71;101086.16;2049937;28;20061;-75
2022/09/10 01:37:30;;;;;;;;;;;;;;;19.59;56.53;101073.75;2037085;29;20454;-76
2022/09/10 01:38:53;;;;;;;;;;;;;;;19.59;56.84;101079.09;2035653;29;19974;-75
2022/09/10 01:40:16;;;;;;;;;;;;;;;19.53;56.84;101076.53;2033734;29;19923;-75
2022/09/10 01:41:39;;;;;;;;;;;;;;;19.46;57.42;101074.84;2035426;29;19929;-76
2022/09/10 01:43:02;;;;;;;;;;;;;;;19.41;57.55;101079.38;2034706;29;19970;-75
2022/09/10 01:44:48;;;;;;;;;;;;;;;19.42;57.87;101079.34;2031876;29;19931;-75
2022/09/10 01:46:20;;;;;;;;;;;;;;;19.40;58.49;101067.78;2055931;28;19929;-75
2022/09/10 01:47:58;;;;;;;;;;;;;;;19.38;58.76;101069.59;2047136;28;19965;-75
2022/09/10 01:49:26;;;;;;;;;;;;;;;19.41;58.73;101063.31;2047958;29;20009;-75
2022/09/10 01:50:55;;;;;;;;;;;;;;;19.41;59.49;101064.19;2043296;29;20331;-75
2022/09/10 01:52:27;;;;;;;;;;;;;;;19.34;60.63;101067.88;2046303;29;19926;-75
2022/09/10 01:53:57;;;;;;;;;;;;;;;19.38;60.89;101066.00;2046333;28;19969;-76
2022/09/10 01:55:28;;;;;;;;;;;;;;;19.45;60.44;101067.69;2040793;29;19923;-77
2022/09/10 01:56:55;;;;;;;;;;;;;;;19.50;60.11;101072.09;2038635;29;19974;-76
2022/09/10 01:58:22;;;;;;;;;;;;;;;19.51;60.26;101067.63;2052795;28;20005;-76
2022/09/10 01:59:54;;;;;;;;;;;;;;;19.53;60.15;101065.81;2044357;29;20013;-75
2022/09/10 02:01:18;;;;;;;;;;;;;;;19.55;59.97;101063.13;2056263;28;19926;-76
2022/09/10 02:02:42;;;;;;;;;;;;;;;19.52;60.02;101064.03;2041626;29;19930;-76
2022/09/10 02:04:06;;;;;;;;;;;;;;;19.50;60.40;101064.06;2053796;28;19937;-76
2022/09/10 02:05:29;;;;;;;;;;;;;;;19.50;60.02;101060.50;2031284;29;21982;-76
2022/09/10 02:06:52;;;;;;;;;;;;;;;19.46;60.10;101058.78;2039215;28;20017;-76
2022/09/10 02:08:16;;;;;;;;;;;;;;;19.42;60.55;101062.41;2040724;29;19923;-76
2022/09/10 02:09:38;;;;;;;;;;;;;;;19.39;60.99;101057.06;2039182;29;19927;-75
2022/09/10 02:11:05;;;;;;;;;;;;;;;19.40;60.79;101059.75;2046370;29;19926;-76
2022/09/10 02:12:30;;;;;;;;;;;;;;;19.37;60.86;101061.56;2052584;28;19922;-76
2022/09/10 02:14:14;;;;;;;;;;;;;;;19.36;61.03;101054.47;2064202;28;19922;-76
2022/09/10 02:16:08;;;;;;;;;;;;;;;19.38;61.36;101053.50;2058780;28;19957;-76
2022/09/10 02:17:38;;;;;;;;;;;;;;;19.37;61.52;101051.75;2062734;28;19963;-75
2022/09/10 02:19:00;;;;;;;;;;;;;;;19.34;61.35;101051.81;2065591;28;19925;-75
2022/09/10 02:20:23;;;;;;;;;;;;;;;19.31;61.93;101051.84;2054929;28;19977;-76
2022/09/10 02:21:46;;;;;;;;;;;;;;;19.33;61.83;101049.16;2048069;28;20009;-75
2022/09/10 02:23:08;;;;;;;;;;;;;;;19.33;62.06;101052.72;2059977;28;20008;-75
2022/09/10 02:24:29;;;;;;;;;;;;;;;19.33;62.41;101046.47;2061501;28;19921;-75
2022/09/10 02:25:52;;;;;;;;;;;;;;;19.35;62.29;101052.69;2050778;28;19929;-75
2022/09/10 02:27:19;;;;;;;;;;;;;;;19.33;62.72;101042.00;2057948;28;20012;-75
2022/09/10 02:28:42;;;;;;;;;;;;;;;19.34;62.82;101048.25;2062545;28;20433;-76
2022/09/10 02:30:07;;;;;;;;;;;;;;;19.34;62.47;101049.13;2052629;28;19934;-75
2022/09/10 02:31:30;;;;;;;;;;;;;;;19.35;62.65;101047.34;2060849;28;20468;-75
2022/09/10 02:32:51;;;;;;;;;;;;;;;19.35;62.28;101040.19;2054727;28;19926;-75
2022/09/10 02:34:14;;;;;;;;;;;;;;;19.38;62.64;101049.94;2059047;28;19922;-75
2022/09/10 02:35:36;;;;;;;;;;;;;;;19.38;62.72;101045.47;2050874;28;19966;-76
2022/09/10 02:36:59;;;;;;;;;;;;;;;19.40;62.39;101041.00;2050263;28;19929;-75
2022/09/10 02:38:21;;;;;;;;;;;;;;;19.39;62.53;101043.69;2060398;28;20432;-75
2022/09/10 02:39:43;;;;;;;;;;;;;;;19.36;62.65;101043.75;2053886;28;20366;-75
2022/09/10 02:41:05;;;;;;;;;;;;;;;19.34;62.47;101043.78;2059822;28;19929;-75
2022/09/10 02:42:26;;;;;;;;;;;;;;;19.31;62.96;101042.91;2057365;28;19926;-76
2022/09/10 02:43:48;;;;;;;;;;;;;;;19.31;62.58;101048.28;2062152;28;19965;-75
2022/09/10 02:45:13;;;;;;;;;;;;;;;19.30;63.11;101047.38;2054480;28;19922;-76
2022/09/10 02:46:34;;;;;;;;;;;;;;;19.30;62.93;101046.50;2052662;28;19926;-75
2022/09/10 02:47:56;;;;;;;;;;;;;;;19.30;62.61;101041.16;2041522;29;19927;-76
2022/09/10 02:49:17;;;;;;;;;;;;;;;19.27;63.28;101043.91;2066926;28;19921;-75
2022/09/10 02:50:40;;;;;;;;;;;;;;;19.21;63.57;101047.56;2057106;28;19976;-75
2022/09/10 02:52:02;;;;;;;;;;;;;;;19.20;63.37;101042.22;2057461;28;19953;-75
2022/09/10 02:53:24;;;;;;;;;;;;;;;19.20;63.73;101047.56;2053599;28;20053;-75
2022/09/10 02:54:49;;;;;;;;;;;;;;;19.21;63.84;101044.88;2051942;28;19921;-76
2022/09/10 02:56:12;;;;;;;;;;;;;;;19.26;63.85;101052.81;2046152;29;19922;-75
2022/09/10 02:57:33;;;;;;;;;;;;;;;19.28;63.60;101051.91;2046376;29;19972;-75
2022/09/10 02:58:55;;;;;;;;;;;;;;;19.29;63.56;101042.97;2041293;29;19923;-75
2022/09/10 03:00:21;;;;;;;;;;;;;;;19.29;63.68;101042.97;2058223;28;19957;-76
2022/09/10 03:01:43;;;;;;;;;;;;;;;19.27;63.62;101050.13;2048744;29;19973;-75
2022/09/10 03:03:04;;;;;;;;;;;;;;;19.26;63.88;101052.81;2046259;29;19929;-75
2022/09/10 03:04:28;;;;;;;;;;;;;;;19.26;63.76;101044.78;2046521;28;19922;-76
2022/09/10 03:05:49;;;;;;;;;;;;;;;19.26;63.94;101044.78;2056737;28;19926;-76
2022/09/10 03:07:11;;;;;;;;;;;;;;;19.25;64.04;101051.94;2050951;28;19993;-75
2022/09/10 03:08:34;;;;;;;;;;;;;;;19.16;64.28;101045.84;2060090;28;19968;-75
2022/09/10 03:09:55;;;;;;;;;;;;;;;19.13;64.11;101051.25;2052939;28;19998;-76
2022/09/10 03:11:21;;;;;;;;;;;;;;;19.13;64.46;101056.59;2046195;29;19961;-75
2022/09/10 03:12:42;;;;;;;;;;;;;;;19.11;64.66;101049.47;2040865;29;19929;-75
2022/09/10 03:14:04;;;;;;;;;;;;;;;19.11;64.40;101051.25;2051179;28;19929;-75
2022/09/10 03:15:28;;;;;;;;;;;;;;;19.09;64.37;101059.34;2045379;29;19957;-75
2022/09/10 03:16:49;;;;;;;;;;;;;;;18.98;65.25;101055.00;2049967;28;19922;-74
2022/09/10 03:18:11;;;;;;;;;;;;;;;18.97;65.63;101054.13;2046035;29;20283;-75
2022/09/10 03:19:33;;;;;;;;;;;;;;;19.00;65.81;101053.22;2038749;29;20399;-75
2022/09/10 03:20:54;;;;;;;;;;;;;;;19.03;65.86;101056.72;2044623;29;19923;-75
2022/09/10 03:22:16;;;;;;;;;;;;;;;19.04;65.65;101046.91;2048157;28;19933;-75
2022/09/10 03:23:39;;;;;;;;;;;;;;;19.06;65.58;101045.09;2052446;28;19922;-75
2022/09/10 03:25:01;;;;;;;;;;;;;;;19.02;65.64;101059.44;2048516;29;19970;-75
2022/09/10 03:26:24;;;;;;;;;;;;;;;18.98;66.10;101058.56;2053431;28;19922;-75
2022/09/10 03:27:46;;;;;;;;;;;;;;;19.00;66.09;101050.53;2062249;28;19926;-75
2022/09/10 03:29:07;;;;;;;;;;;;;;;19.05;65.76;101060.25;2058389;28;19922;-74
2022/09/10 03:30:36;;;;;;;;;;;;;;;19.06;65.67;101062.03;2062887;28;19922;-75
2022/09/10 03:31:57;;;;;;;;;;;;;;;19.08;65.97;101065.59;2056016;28;19930;-75
2022/09/10 03:33:20;;;;;;;;;;;;;;;19.10;66.13;101052.16;2045014;28;20249;-75
2022/09/10 03:34:43;;;;;;;;;;;;;;;19.14;65.44;101061.03;2044141;29;19930;-75
2022/09/10 03:36:04;;;;;;;;;;;;;;;19.13;65.42;101065.50;2043221;29;19922;-75
2022/09/10 03:37:27;;;;;;;;;;;;;;;19.09;65.38;101070.03;2059855;28;19925;-75
2022/09/10 03:38:48;;;;;;;;;;;;;;;19.04;65.64;101068.31;2055829;28;19928;-75
2022/09/10 03:40:11;;;;;;;;;;;;;;;18.91;66.59;101067.59;2053093;28;20481;-75
2022/09/10 03:41:33;;;;;;;;;;;;;;;18.90;66.47;101065.84;2054186;28;19972;-75
2022/09/10 03:42:55;;;;;;;;;;;;;;;18.92;67.04;101068.47;2040097;29;19931;-75
2022/09/10 03:44:17;;;;;;;;;;;;;;;18.93;67.01;101063.13;2043471;29;19922;-75
2022/09/10 03:45:39;;;;;;;;;;;;;;;18.91;67.11;101064.03;2059143;28;20649;-75
2022/09/10 03:47:01;;;;;;;;;;;;;;;18.92;67.06;101068.47;2056208;28;19922;-75
2022/09/10 03:48:22;;;;;;;;;;;;;;;18.95;66.80;101069.34;2054122;28;20438;-75
2022/09/10 03:49:45;;;;;;;;;;;;;;;18.97;66.45;101072.84;2053209;28;19929;-75
2022/09/10 03:51:09;;;;;;;;;;;;;;;19.01;66.50;101079.06;2048705;29;19950;-75
2022/09/10 03:52:31;;;;;;;;;;;;;;;19.01;66.37;101074.59;2051763;28;20605;-75
2022/09/10 03:53:52;;;;;;;;;;;;;;;19.02;66.48;101078.16;2053880;28;19952;-74
2022/09/10 03:55:16;;;;;;;;;;;;;;;19.03;66.15;101082.63;2044648;29;19922;-75
2022/09/10 03:56:39;;;;;;;;;;;;;;;19.04;66.44;101079.00;2040067;29;19958;-75
2022/09/10 03:58:01;;;;;;;;;;;;;;;19.03;66.49;101082.63;2045825;29;19977;-76
2022/09/10 03:59:23;;;;;;;;;;;;;;;19.05;66.14;101076.31;2038192;29;19922;-75
2022/09/10 04:00:49;;;;;;;;;;;;;;;19.06;66.43;101080.78;2050819;28;19922;-76
2022/09/10 04:02:13;;;;;;;;;;;;;;;19.02;66.47;101084.41;2045122;29;19922;-75
2022/09/10 04:03:34;;;;;;;;;;;;;;;19.00;66.22;101088.00;2054126;28;19926;-76
2022/09/10 04:04:56;;;;;;;;;;;;;;;18.99;66.64;101083.56;2047404;28;19922;-75
2022/09/10 04:06:18;;;;;;;;;;;;;;;19.00;66.61;101086.22;2044087;29;19986;-75
2022/09/10 04:07:39;;;;;;;;;;;;;;;19.04;66.05;101090.59;2045417;29;19926;-75
2022/09/10 04:09:01;;;;;;;;;;;;;;;19.04;66.19;101084.38;2041761;28;20017;-75
2022/09/10 04:10:23;;;;;;;;;;;;;;;19.02;66.45;101097.78;2044713;28;19922;-76
2022/09/10 04:11:45;;;;;;;;;;;;;;;19.00;66.30;101096.03;2051233;28;19929;-75
2022/09/10 04:13:06;;;;;;;;;;;;;;;18.99;66.37;101095.13;2045649;29;20425;-75
2022/09/10 04:14:30;;;;;;;;;;;;;;;19.03;66.29;101101.34;2037040;29;19922;-76
2022/09/10 04:15:54;;;;;;;;;;;;;;;19.11;66.74;101096.75;2045102;29;19922;-76
2022/09/10 04:17:16;;;;;;;;;;;;;;;19.23;66.40;101099.25;2045341;29;19926;-76
2022/09/10 04:18:40;;;;;;;;;;;;;;;19.35;66.44;101106.25;2038114;29;20021;-75
2022/09/10 04:20:01;;;;;;;;;;;;;;;19.45;66.19;101105.19;2036815;29;19950;-75
2022/09/10 04:21:24;;;;;;;;;;;;;;;19.56;65.73;101105.94;2043202;29;20425;-75
2022/09/10 04:22:45;;;;;;;;;;;;;;;19.70;65.42;101101.22;2047896;28;20017;-76
2022/09/10 04:24:08;;;;;;;;;;;;;;;19.83;65.36;101109.94;2037012;29;20018;-75
2022/09/10 04:25:29;;;;;;;;;;;;;;;19.93;65.49;101098.19;2037402;29;20579;-76
2022/09/10 04:26:52;;;;;;;;;;;;;;;19.99;65.19;101103.44;2031383;29;19929;-75
2022/09/10 04:28:14;;;;;;;;;;;;;;;20.07;64.88;101098.81;2037803;29;19922;-76
2022/09/10 04:29:38;;;;;;;;;;;;;;;20.21;64.81;101102.16;2044723;29;19926;-75
2022/09/10 04:31:02;;;;;;;;;;;;;;;20.33;64.38;101101.06;2040683;29;20021;-75
2022/09/10 04:32:24;;;;;;;;;;;;;;;20.39;64.35;101106.31;2037384;29;20307;-76
2022/09/10 04:33:46;;;;;;;;;;;;;;;20.48;64.34;101108.78;2045746;29;19926;-76
2022/09/10 04:35:09;;;;;;;;;;;;;;;20.61;64.41;101102.25;2047655;29;19945;-75
2022/09/10 04:36:31;;;;;;;;;;;;;;;20.74;63.94;101110.09;2044944;29;19923;-75
2022/09/10 04:37:52;;;;;;;;;;;;;;;20.85;64.43;101103.56;2036962;29;19926;-75
2022/09/10 04:39:15;;;;;;;;;;;;;;;20.97;63.88;101111.38;2032010;29;20009;-75
2022/09/10 04:40:37;;;;;;;;;;;;;;;21.08;63.37;101101.25;2035359;29;20041;-74
2022/09/10 04:42:00;;;;;;;;;;;;;;;21.20;63.24;101105.50;2040271;29;19922;-76
2022/09/10 04:43:23;;;;;;;;;;;;;;;21.30;63.32;101107.09;2036345;29;19922;-76
2022/09/10 04:44:45;;;;;;;;;;;;;;;21.42;63.37;101109.47;2034424;29;19930;-75
2022/09/10 04:46:09;;;;;;;;;;;;;;;21.55;63.47;101110.06;2037721;29;19929;-75
2022/09/10 04:47:33;;;;;;;;;;;;;;;21.67;63.22;101111.56;2046308;29;19973;-76
2022/09/10 04:48:55;;;;;;;;;;;;;;;21.76;63.15;101104.19;2051051;28;19922;-76
2022/09/10 04:50:19;;;;;;;;;;;;;;;21.86;62.75;101104.81;2039910;29;19926;-76
2022/09/10 04:52:01;;;;;;;;;;;;;;;22.04;62.86;101111.59;2048375;29;19965;-75
2022/09/10 04:53:24;;;;;;;;;;;;;;;22.16;62.48;101106.75;2045929;28;19968;-76
2022/09/10 04:54:45;;;;;;;;;;;;;;;22.25;61.74;101108.34;2036677;29;19922;-77
2022/09/10 04:56:07;;;;;;;;;;;;;;;22.33;61.76;101110.78;2047556;29;19961;-77
2022/09/10 04:57:32;;;;;;;;;;;;;;;22.43;60.85;101109.63;2046271;29;19962;-76
2022/09/10 04:58:53;;;;;;;;;;;;;;;22.50;60.98;101108.53;2036660;29;19952;-76
2022/09/10 05:00:15;;;;;;;;;;;;;;;22.63;61.33;101116.22;2038006;29;19973;-76
2022/09/10 05:01:41;;;;;;;;;;;;;;;22.79;61.10;101111.28;2037662;29;20295;-76
2022/09/10 05:03:04;;;;;;;;;;;;;;;22.92;60.22;101112.69;2042029;29;19926;-76
2022/09/10 05:04:26;;;;;;;;;;;;;;;23.04;60.18;101112.31;2044958;29;19930;-76
2022/09/10 05:05:49;;;;;;;;;;;;;;;23.15;59.71;101111.13;2037994;29;20368;-76
2022/09/10 05:07:11;;;;;;;;;;;;;;;23.25;59.27;101113.50;2038209;28;20366;-76
2022/09/10 05:08:32;;;;;;;;;;;;;;;23.37;59.59;101110.41;2044668;29;19930;-76
2022/09/10 05:09:55;;;;;;;;;;;;;;;23.48;59.26;101110.13;2038513;29;19923;-76
2022/09/10 05:11:18;;;;;;;;;;;;;;;23.60;58.50;101112.41;2050638;28;19951;-76
2022/09/10 05:12:41;;;;;;;;;;;;;;;23.72;58.17;101108.41;2043995;28;19952;-76
2022/09/10 05:14:02;;;;;;;;;;;;;;;23.84;58.08;101118.81;2049877;28;19929;-77
2022/09/10 05:15:27;;;;;;;;;;;;;;;23.97;58.03;101108.47;2047328;29;19922;-76
2022/09/10 05:16:49;;;;;;;;;;;;;;;24.10;57.83;101117.91;2053573;28;19973;-76
2022/09/10 05:18:11;;;;;;;;;;;;;;;24.21;57.12;101130.16;2052319;28;20280;-75
2022/09/10 05:19:33;;;;;;;;;;;;;;;24.30;57.06;101118.13;2043849;29;20018;-75
2022/09/10 05:20:59;;;;;;;;;;;;;;;24.43;57.43;101121.28;2051198;28;19926;-75
2022/09/10 05:22:21;;;;;;;;;;;;;;;24.61;57.72;101123.34;2044531;29;19922;-76
2022/09/10 05:23:44;;;;;;;;;;;;;;;24.76;57.83;101116.47;2049773;28;19922;-76
2022/09/10 05:25:07;;;;;;;;;;;;;;;24.93;57.21;101111.38;2043984;29;20363;-75
2022/09/10 05:26:29;;;;;;;;;;;;;;;25.09;57.72;101122.44;2041346;28;19930;-76
2022/09/10 05:27:54;;;;;;;;;;;;;;;25.26;57.64;101119.97;2037632;29;19923;-76
2022/09/10 05:29:18;;;;;;;;;;;;;;;25.41;57.54;101111.25;2043384;28;20375;-76
2022/09/10 05:30:40;;;;;;;;;;;;;;;25.56;56.88;101117.84;2032743;29;19966;-75
2022/09/10 05:32:08;;;;;;;;;;;;;;;25.68;56.50;101118.28;2041411;29;19923;-76
2022/09/10 05:33:29;;;;;;;;;;;;;;;25.86;56.36;101113.94;2063598;28;19929;-76
2022/09/10 05:34:51;;;;;;;;;;;;;;;26.02;56.17;101117.75;2055216;28;20437;-76
2022/09/10 05:36:13;;;;;;;;;;;;;;;26.19;56.01;101123.31;2047050;29;20362;-76
2022/09/10 05:37:36;;;;;;;;;;;;;;;26.31;55.38;101121.06;2039275;29;19922;-76
2022/09/10 05:38:57;;;;;;;;;;;;;;;26.45;56.05;101122.19;2051932;28;20527;-75
2022/09/10 05:40:21;;;;;;;;;;;;;;;26.61;55.21;101124.22;2062038;28;19960;-76
2022/09/10 05:41:44;;;;;;;;;;;;;;;26.75;54.23;101124.50;2049796;29;19926;-76
2022/09/10 05:43:06;;;;;;;;;;;;;;;26.90;54.98;101129.25;2047126;29;19922;-76
2022/09/10 05:44:28;;;;;;;;;;;;;;;27.07;55.08;101126.63;2051037;28;19933;-76
2022/09/10 05:45:51;;;;;;;;;;;;;;;27.24;54.70;101128.56;2057146;28;20424;-76
2022/09/10 05:47:15;;;;;;;;;;;;;;;27.43;54.97;101131.25;2053507;28;19922;-76
2022/09/10 05:48:38;;;;;;;;;;;;;;;27.61;54.51;101124.97;2041791;29;19981;-76
2022/09/10 05:50:01;;;;;;;;;;;;;;;27.80;53.54;101125.81;2050089;28;19922;-77
2022/09/10 05:51:26;;;;;;;;;;;;;;;28.00;53.58;101128.41;2057325;28;19941;-77
2022/09/10 05:52:49;;;;;;;;;;;;;;;28.19;53.55;101132.91;2045406;29;19997;-76
2022/09/10 05:54:12;;;;;;;;;;;;;;;28.34;53.56;101134.84;2051579;28;19922;-77
2022/09/10 05:55:35;;;;;;;;;;;;;;;28.50;52.91;101136.66;2049642;28;20410;-76
2022/09/10 05:56:59;;;;;;;;;;;;;;;28.66;52.33;101134.03;2055096;28;19928;-76
2022/09/10 05:58:22;;;;;;;;;;;;;;;28.85;52.49;101142.09;2049792;29;19946;-77
2022/09/10 05:59:45;;;;;;;;;;;;;;;29.01;52.63;101134.88;2051875;28;19926;-76
2022/09/10 06:01:07;;;;;;;;;;;;;;;29.17;51.10;101138.47;2053236;28;19951;-76
2022/09/10 06:02:33;;;;;;;;;;;;;;;29.29;49.89;101137.78;2054141;28;19926;-77
2022/09/10 06:03:55;;;;;;;;;;;;;;;29.42;49.63;101138.00;2046699;29;19929;-77
2022/09/10 06:05:18;;;;;;;;;;;;;;;29.55;50.20;101141.78;2043257;28;20017;-77
2022/09/10 06:06:41;;;;;;;;;;;;;;;29.70;49.60;101145.47;2054657;28;20708;-76
2022/09/10 06:08:05;;;;;;;;;;;;;;;29.84;49.81;101145.56;2047248;29;19922;-77
2022/09/10 06:09:28;;;;;;;;;;;;;;;29.96;48.68;101143.97;2046642;29;19934;-77
2022/09/10 06:11:26;;;;;;;;;;;;;;;30.12;48.72;101150.28;2054104;28;20586;-76
2022/09/10 06:12:48;;;;;;;;;;;;;;;30.24;46.05;101149.56;2053268;28;20037;-77
2022/09/10 06:14:11;;;;;;;;;;;;;;;30.29;44.00;101152.00;2056423;28;19972;-76
2022/09/10 06:15:34;;;;;;;;;;;;;;;30.30;44.47;101151.91;2062460;28;19922;-77
2022/09/10 06:16:56;;;;;;;;;;;;;;;30.35;44.24;101147.06;2049502;29;20390;-77
2022/09/10 06:18:21;;;;;;;;;;;;;;;30.47;44.56;101145.41;2060662;28;19926;-77
2022/09/10 06:19:44;;;;;;;;;;;;;;;30.60;43.85;101149.19;2056596;28;19922;-78
2022/09/10 06:21:06;;;;;;;;;;;;;;;30.71;44.73;101152.16;2049365;29;19965;-78
2022/09/10 06:22:29;;;;;;;;;;;;;;;30.81;44.31;101150.59;2046941;29;19926;-78
2022/09/10 06:23:53;;;;;;;;;;;;;;;30.92;43.73;101151.78;2048403;28;19923;-78
2022/09/10 06:25:14;;;;;;;;;;;;;;;30.99;44.06;101151.28;2059203;28;20282;-78
2022/09/10 06:26:36;;;;;;;;;;;;;;;31.06;43.87;101157.25;2057181;28;19974;-78
2022/09/10 06:28:02;;;;;;;;;;;;;;;31.18;44.05;101156.47;2053613;28;20048;-78
2022/09/10 06:29:25;;;;;;;;;;;;;;;31.29;42.92;101164.84;2061058;28;20294;-82
2022/09/10 06:30:47;;;;;;;;;;;;;;;31.36;43.79;101158.03;2049107;29;19927;-82
2022/09/10 06:32:09;;;;;;;;;;;;;;;31.46;43.31;101156.44;2047279;29;19926;-81
2022/09/10 06:33:33;;;;;;;;;;;;;;;31.53;43.05;101163.25;2046111;28;19923;-81
2022/09/10 06:34:55;;;;;;;;;;;;;;;31.61;43.26;101162.78;2049366;29;19969;-82
2022/09/10 06:36:17;;;;;;;;;;;;;;;31.66;43.19;101168.81;2045347;29;20474;-83
2022/09/10 06:37:39;;;;;;;;;;;;;;;31.72;43.56;101164.81;2054826;28;20024;-83
2022/09/10 06:39:05;;;;;;;;;;;;;;;31.79;40.49;101155.22;2047224;28;19922;-82
2022/09/10 06:40:53;;;;;;;;;;;;;;;31.80;41.03;101162.44;2049257;29;19944;-82
2022/09/10 06:42:15;;;;;;;;;;;;;;;31.86;41.59;101168.38;2048536;28;19976;-83
2022/09/10 06:44:02;;;;;;;;;;;;;;;31.96;41.33;101174.13;2065586;28;19922;-82
2022/09/10 06:45:31;;;;;;;;;;;;;;;32.04;42.04;101175.34;2056347;28;20287;-84
2022/09/10 06:47:22;;;;;;;;;;;;;;;32.13;41.94;101173.84;2043479;28;20603;-83
2022/09/10 06:48:46;;;;;;;;;;;;;;;32.18;41.79;101177.16;2046782;29;19953;-83
2022/09/10 06:50:08;;;;;;;;;;;;;;;32.26;41.96;101179.38;2046452;29;19930;-82
2022/09/10 06:51:33;;;;;;;;;;;;;;;32.35;42.42;101181.50;2046661;29;20298;-82
2022/09/10 06:52:56;;;;;;;;;;;;;;;32.42;41.38;101178.25;2047243;29;20017;-81
2022/09/10 06:54:18;;;;;;;;;;;;;;;32.47;41.23;101185.25;2053961;28;19988;-85
2022/09/10 06:55:39;;;;;;;;;;;;;;;32.49;40.00;101184.16;2041627;29;19926;-82
2022/09/10 06:57:03;;;;;;;;;;;;;;;32.51;40.30;101184.03;2058907;28;19945;-84
2022/09/10 06:58:24;;;;;;;;;;;;;;;32.57;40.52;101180.88;2041168;29;20054;-80
2022/09/10 06:59:47;;;;;;;;;;;;;;;32.63;39.24;101177.72;2056946;28;20445;-85
2022/09/10 07:01:10;;;;;;;;;;;;;;;32.67;40.30;101173.81;2048856;29;20454;-83
2022/09/10 07:02:33;;;;;;;;;;;;;;;32.73;40.26;101176.13;2043361;28;19932;-84
2022/09/10 07:03:57;;;;;;;;;;;;;;;32.79;39.46;101172.97;2043431;29;19985;-83
2022/09/10 07:05:20;;;;;;;;;;;;;;;32.80;39.20;101174.72;2059866;28;19956;-84
2022/09/10 07:06:44;;;;;;;;;;;;;;;32.76;39.00;101175.91;2056925;28;19926;-83
2022/09/10 07:08:11;;;;;;;;;;;;;;;32.78;39.89;101173.94;2051201;28;19981;-83
2022/09/10 07:09:33;;;;;;;;;;;;;;;32.86;38.25;101176.13;2051827;28;20412;-83
2022/09/10 07:10:59;;;;;;;;;;;;;;;32.93;38.45;101178.34;2049407;28;19930;-83
2022/09/10 07:12:22;;;;;;;;;;;;;;;32.96;37.90;101174.47;2060045;28;19930;-84